Manitou Springs, Colorado
Current Conditions -  °F | °C
As of 7:56 PM on Wednesday 26 Nov 2014 (Local Time) from KCWN Reporting Station
Clear Clear  
Wind Chill: 30°   Ceiling: Unl
Heat Index: 30°   Visibility: 10mi
Dew Point: 25°   Wind: 3mph
Humidity: 81%   Direction: NA
Pressure: 30.26"   Gusts: NA
Location:  38.86°N, 104.92°W
Report Text: KCWN 270256Z AUTO VRB03KT 10SM CLR M01/M04 A3026 RMK AO2 SLP292 T10131041 52012
Loading
Personal Weather Stations






























Interactive Weather Map New forecast layout! Learn more

10-Day Weather Forecast

Advertisements
Track Severe Weather on mobile